Time;durP1;ratioP1;P1;durP2;ratioP2;P2;SDS_P1;SDS_P2;PMS_P1;PMS_P2;Temp;Humidity;BMP_temperature;BMP_pressure;BME280_temperature;BME280_humidity;BME280_pressure;Samples;Min_cycle;Max_cycle;Signal;HPM_P1;HPM_P2
2022/10/22 00:02:03;;;;;;;1.48;1.30;;;14.40;99.90;;;14.52;100.00;100492.19;5214316;28;20139;-85
2022/10/22 00:04:35;;;;;;;1.90;1.33;;;14.40;99.90;;;14.52;100.00;100498.31;5232053;28;20052;-84
2022/10/22 00:07:08;;;;;;;2.53;1.55;;;14.40;99.90;;;14.53;100.00;100488.72;5214593;28;20045;-84
2022/10/22 00:09:40;;;;;;;2.58;1.20;;;14.40;99.90;;;14.54;100.00;100488.75;5215334;28;20052;-82
2022/10/22 00:12:13;;;;;;;2.17;1.30;;;14.40;99.90;;;14.54;100.00;100498.34;5214846;28;20094;-85
2022/10/22 00:14:46;;;;;;;2.72;1.40;;;14.30;99.90;;;14.54;100.00;100493.09;5213972;28;20055;-84
2022/10/22 00:17:18;;;;;;;2.55;1.33;;;14.30;99.90;;;14.54;100.00;100482.59;5215010;28;20051;-85
2022/10/22 00:19:51;;;;;;;3.83;2.13;;;14.40;99.90;;;14.50;100.00;100475.56;5231869;28;20129;-84
2022/10/22 00:22:24;;;;;;;3.88;2.00;;;14.40;99.90;;;14.50;100.00;100468.59;5213838;28;20576;-84
2022/10/22 00:24:56;;;;;;;2.63;1.90;;;14.40;99.90;;;14.52;100.00;100476.47;5213705;28;20045;-84
2022/10/22 00:27:28;;;;;;;4.43;1.75;;;14.30;99.90;;;14.53;100.00;100476.47;5213850;28;20064;-85
2022/10/22 00:30:00;;;;;;;2.28;1.55;;;14.40;99.90;;;14.54;100.00;100478.28;5214323;28;20053;-82
2022/10/22 00:32:32;;;;;;;2.95;1.50;;;14.40;99.90;;;14.56;100.00;100470.41;5214281;28;20056;-84
2022/10/22 00:35:05;;;;;;;2.33;1.48;;;14.40;99.90;;;14.53;100.00;100465.97;5214470;28;20048;-84
2022/10/22 00:37:39;;;;;;;2.58;1.50;;;14.40;99.90;;;14.55;100.00;100463.41;5214007;28;20541;-85
2022/10/22 00:40:12;;;;;;;3.25;1.58;;;14.40;99.90;;;14.57;100.00;100469.53;5213679;28;20052;-84
2022/10/22 00:42:44;;;;;;;2.10;1.52;;;14.40;99.90;;;14.57;100.00;100475.66;5213952;28;20518;-84
2022/10/22 00:45:22;;;;;;;3.75;1.58;;;14.40;99.90;;;14.54;100.00;100473.03;5231954;28;20041;-84
2022/10/22 00:47:59;;;;;;;1.98;1.30;;;14.40;99.90;;;14.54;100.00;100475.66;5213868;28;20052;-84
2022/10/22 00:50:35;;;;;;;2.22;1.27;;;14.40;99.90;;;14.55;100.00;100476.53;5213343;28;20060;-84
2022/10/22 00:53:13;;;;;;;1.85;1.10;;;14.40;99.90;;;14.55;100.00;100480.03;5213493;28;20060;-85
2022/10/22 00:55:50;;;;;;;2.55;1.40;;;14.40;99.90;;;14.54;100.00;100485.22;5232111;28;20045;-84
2022/10/22 00:58:26;;;;;;;1.33;1.23;;;14.30;99.90;;;14.54;100.00;100472.09;5231720;28;20037;-84
2022/10/22 01:00:59;;;;;;;2.55;1.50;;;14.40;99.90;;;14.54;100.00;100461.63;5212615;28;20633;-84
2022/10/22 01:03:32;;;;;;;1.17;1.00;;;14.40;99.90;;;14.54;100.00;100467.78;5213817;28;20045;-84
2022/10/22 01:06:06;;;;;;;2.58;1.48;;;14.40;99.90;;;14.52;100.00;100464.22;5212932;28;20040;-84
2022/10/22 01:08:47;;;;;;;1.42;1.08;;;14.40;99.90;;;14.52;100.00;100465.97;5213193;28;20052;-84
2022/10/22 01:11:26;;;;;;;1.90;1.20;;;14.40;99.90;;;14.50;100.00;100459.84;5213402;28;20044;-84
2022/10/22 01:14:10;;;;;;;2.13;1.45;;;14.30;99.90;;;14.49;100.00;100453.72;5212698;28;20422;-84
2022/10/22 01:16:53;;;;;;;2.05;1.25;;;14.30;99.90;;;14.47;100.00;100462.41;5212479;28;20060;-84
2022/10/22 01:19:50;;;;;;;2.00;1.15;;;14.30;99.90;;;14.44;100.00;100459.72;5211082;28;20049;-84
2022/10/22 01:22:30;;;;;;;2.53;1.20;;;14.30;99.90;;;14.42;100.00;100461.44;5210233;28;20144;-85
2022/10/22 01:25:11;;;;;;;1.52;1.42;;;14.30;99.90;;;14.38;100.00;100456.16;5209541;28;20419;-84
2022/10/22 01:27:59;;;;;;;2.15;1.10;;;14.20;99.90;;;14.35;100.00;100450.88;5211739;28;20507;-84
2022/10/22 01:30:35;;;;;;;1.52;1.20;;;14.20;99.90;;;14.34;100.00;100456.97;5213365;28;20096;-84
2022/10/22 01:33:11;;;;;;;1.52;1.13;;;14.20;99.90;;;14.31;100.00;100459.53;5213175;28;20096;-84
2022/10/22 01:35:45;;;;;;;1.38;0.98;;;14.10;99.90;;;14.29;100.00;100447.28;5231340;28;20044;-84
2022/10/22 01:38:22;;;;;;;2.15;1.17;;;14.20;99.90;;;14.26;100.00;100457.72;5213514;28;20045;-84
2022/10/22 01:40:55;;;;;;;1.15;1.05;;;14.10;99.90;;;14.23;100.00;100445.44;5212680;28;20056;-84
2022/10/22 01:43:27;;;;;;;1.98;1.25;;;14.10;99.90;;;14.21;100.00;100452.38;5213034;28;20049;-84
2022/10/22 01:46:05;;;;;;;1.95;1.23;;;14.00;99.90;;;14.21;100.00;100451.50;5234191;28;20068;-84
2022/10/22 01:48:56;;;;;;;1.73;1.10;;;14.00;99.90;;;14.24;100.00;100448.94;5216786;28;20053;-85
2022/10/22 01:51:46;;;;;;;1.50;1.10;;;14.10;99.90;;;14.26;100.00;100444.59;5215781;28;20542;-83
2022/10/22 01:54:32;;;;;;;1.75;0.90;;;14.10;99.90;;;14.26;100.00;100455.97;5232785;28;20045;-84
2022/10/22 01:57:15;;;;;;;2.05;1.50;;;14.10;99.90;;;14.25;100.00;100462.06;5214008;28;20501;-85
2022/10/22 01:59:56;;;;;;;1.92;1.10;;;14.10;99.90;;;14.25;100.00;100464.69;5213956;28;20495;-85
2022/10/22 02:02:37;;;;;;;2.28;1.45;;;14.10;99.90;;;14.27;100.00;100468.22;5214448;28;20056;-85
2022/10/22 02:05:14;;;;;;;2.15;1.60;;;14.10;99.90;;;14.29;100.00;100466.50;5214891;28;20391;-85
2022/10/22 02:07:51;;;;;;;1.40;1.30;;;14.10;99.90;;;14.34;100.00;100467.47;5216201;28;20049;-84
2022/10/22 02:10:25;;;;;;;2.38;1.38;;;14.20;99.90;;;14.38;100.00;100471.00;5233093;28;20045;-84
2022/10/22 02:12:59;;;;;;;2.67;1.80;;;14.20;99.90;;;14.38;100.00;100463.13;5215030;28;20212;-84
2022/10/22 02:15:34;;;;;;;4.43;2.00;;;14.20;99.90;;;14.42;100.00;100458.81;5232602;28;20458;-85
2022/10/22 02:18:09;;;;;;;2.85;1.70;;;14.30;99.90;;;14.45;100.00;100467.59;5215943;28;20053;-84
2022/10/22 02:20:42;;;;;;;2.53;1.75;;;14.30;99.90;;;14.49;100.00;100452.84;5214495;28;20049;-85
2022/10/22 02:23:15;;;;;;;5.43;2.45;;;14.30;99.90;;;14.50;100.00;100459.84;5214579;28;20052;-84
2022/10/22 02:25:51;;;;;;;5.55;2.20;;;14.30;99.90;;;14.51;100.00;100458.97;5220804;28;20053;-84
2022/10/22 02:28:29;;;;;;;2.90;1.60;;;14.40;99.90;;;14.53;100.00;100462.47;5223075;28;20048;-85
2022/10/22 02:31:12;;;;;;;2.42;1.85;;;14.40;99.90;;;14.50;100.00;100457.22;5221633;28;20407;-84
2022/10/22 02:33:49;;;;;;;2.20;1.65;;;14.30;99.90;;;14.48;100.00;100453.69;5222984;28;20049;-83
2022/10/22 02:36:22;;;;;;;2.03;1.63;;;14.40;99.90;;;14.44;100.00;100455.34;5222639;28;20045;-84
2022/10/22 02:38:55;;;;;;;2.92;1.60;;;14.30;99.90;;;14.40;100.00;100453.53;5222803;28;20052;-84
2022/10/22 02:41:28;;;;;;;2.78;1.70;;;14.30;99.90;;;14.37;100.00;100459.63;5227453;28;20045;-82
2022/10/22 02:44:01;;;;;;;2.28;1.60;;;14.20;99.90;;;14.34;100.00;100462.22;5227401;28;20514;-82
2022/10/22 02:46:33;;;;;;;2.42;1.50;;;14.20;99.90;;;14.34;100.00;100461.31;5226940;28;20072;-84
2022/10/22 02:49:07;;;;;;;2.80;1.80;;;14.20;99.90;;;14.31;100.00;100459.53;5221129;28;20037;-84
2022/10/22 02:51:39;;;;;;;2.60;1.70;;;14.20;99.90;;;14.29;100.00;100461.28;5239799;28;20053;-84
2022/10/22 02:54:11;;;;;;;3.10;1.73;;;14.10;99.90;;;14.28;100.00;100459.50;5221023;28;20049;-84
2022/10/22 02:56:43;;;;;;;2.10;1.55;;;14.10;99.90;;;14.25;100.00;100459.44;5217826;28;20037;-84
2022/10/22 02:59:15;;;;;;;4.35;2.10;;;14.20;99.90;;;14.23;100.00;100474.28;5213574;28;20041;-84
2022/10/22 03:01:47;;;;;;;4.13;1.83;;;14.10;99.90;;;14.22;100.00;100463.78;5213374;28;20052;-84
2022/10/22 03:04:20;;;;;;;3.22;1.70;;;14.10;99.90;;;14.18;100.00;100470.72;5231463;28;20056;-84
2022/10/22 03:06:52;;;;;;;4.40;2.30;;;14.10;99.90;;;14.15;100.00;100478.53;5230986;28;20467;-84
2022/10/22 03:09:25;;;;;;;2.78;1.80;;;14.00;99.90;;;14.12;100.00;100474.13;5213844;28;20501;-84
2022/10/22 03:11:57;;;;;;;2.88;1.63;;;14.00;99.90;;;14.12;100.00;100481.09;5213674;28;20055;-84
2022/10/22 03:14:29;;;;;;;2.40;1.25;;;14.00;99.90;;;14.12;100.00;100481.09;5214361;28;20503;-84
2022/10/22 03:17:01;;;;;;;2.60;1.50;;;14.00;99.90;;;14.10;100.00;100477.59;5213174;28;20052;-84
2022/10/22 03:19:34;;;;;;;1.92;1.45;;;14.00;99.90;;;14.08;100.00;100487.13;5213133;28;20045;-84
2022/10/22 03:22:11;;;;;;;2.83;1.50;;;14.00;99.90;;;14.04;100.00;100485.34;5212485;28;20056;-84
2022/10/22 03:24:47;;;;;;;3.70;1.70;;;13.90;99.90;;;14.03;100.00;100488.84;5212965;28;20049;-84
2022/10/22 03:27:21;;;;;;;3.15;1.50;;;13.90;99.90;;;14.01;100.00;100483.53;5212682;28;20049;-84
2022/10/22 03:29:53;;;;;;;1.33;1.20;;;13.90;99.90;;;14.00;100.00;100484.41;5212244;28;20060;-84
2022/10/22 03:32:25;;;;;;;2.50;1.70;;;13.90;99.90;;;13.98;100.00;100485.25;5249552;23;20635;-79
2022/10/22 03:34:59;;;;;;;1.95;1.65;;;13.80;99.90;;;13.94;100.00;100488.66;5209324;28;20425;-78
2022/10/22 03:37:36;;;;;;;2.78;1.50;;;13.80;99.90;;;13.93;100.00;100493.03;5226651;28;20037;-78
2022/10/22 03:40:11;;;;;;;2.00;1.30;;;13.80;99.90;;;13.91;100.00;100499.09;5191986;28;20048;-78
2022/10/22 03:42:44;;;;;;;1.60;1.38;;;13.80;99.90;;;13.88;100.00;100499.03;5192598;28;20072;-78
2022/10/22 03:45:17;;;;;;;3.13;1.60;;;13.70;99.90;;;13.84;100.00;100496.38;5208702;28;20041;-78
2022/10/22 03:47:50;;;;;;;2.67;1.80;;;13.70;99.90;;;13.83;100.00;100502.47;5192262;28;20416;-79
2022/10/22 03:50:23;;;;;;;3.38;1.98;;;13.70;99.90;;;13.83;100.00;100493.75;5191104;28;20409;-78
2022/10/22 03:52:57;;;;;;;2.45;1.73;;;13.70;99.90;;;13.83;100.00;100497.25;5226387;28;20110;-78
2022/10/22 03:55:29;;;;;;;1.90;1.40;;;13.70;99.90;;;13.84;100.00;100499.00;5208885;28;20475;-78
2022/10/22 03:58:02;;;;;;;2.20;1.52;;;13.70;99.90;;;13.85;100.00;100500.75;5175630;28;20041;-78
2022/10/22 04:00:35;;;;;;;2.53;1.50;;;13.70;99.90;;;13.88;100.00;100504.28;5175522;28;20107;-78
2022/10/22 04:03:08;;;;;;;2.40;1.20;;;13.70;99.90;;;13.89;100.00;100508.66;5226134;28;20041;-78
2022/10/22 04:05:43;;;;;;;2.60;1.50;;;13.70;99.90;;;13.88;100.00;100504.28;5226160;28;20041;-83
2022/10/22 04:08:15;;;;;;;2.95;1.70;;;13.70;99.90;;;13.89;100.00;100500.78;5183381;28;20387;-78
2022/10/22 04:10:52;;;;;;;2.42;1.50;;;13.70;99.90;;;13.87;100.00;100500.78;5207608;28;20064;-78
2022/10/22 04:13:24;;;;;;;3.42;2.30;;;13.70;99.90;;;13.88;100.00;100505.16;5191779;28;20417;-78
2022/10/22 04:16:07;;;;;;;2.60;1.77;;;13.70;99.90;;;13.93;100.00;100507.88;5192320;28;20140;-79
2022/10/22 04:18:40;;;;;;;3.42;2.00;;;13.80;99.90;;;14.00;100.00;100514.97;5208129;28;20570;-79
2022/10/22 04:21:19;;;;;;;3.10;1.85;;;13.80;99.90;;;14.07;100.00;100512.47;5207701;28;20052;-78
2022/10/22 04:23:53;;;;;;;3.50;2.03;;;13.90;99.90;;;14.14;100.00;100518.69;5207996;28;20612;-79
2022/10/22 04:26:25;;;;;;;2.88;2.20;;;14.00;99.90;;;14.19;100.00;100522.28;5208253;28;20417;-78
2022/10/22 04:28:58;;;;;;;6.28;2.33;;;14.10;99.90;;;14.24;100.00;100520.59;5191343;28;20079;-79
2022/10/22 04:31:30;;;;;;;6.22;2.67;;;14.10;99.90;;;14.28;100.00;100527.69;5207461;28;20132;-78
2022/10/22 04:34:03;;;;;;;3.83;2.35;;;14.20;99.90;;;14.31;100.00;100532.06;5207918;28;20083;-78
2022/10/22 04:36:37;;;;;;;3.58;2.20;;;14.20;99.90;;;14.34;100.00;100532.09;5208061;28;20045;-78
2022/10/22 04:39:09;;;;;;;5.22;2.42;;;14.20;99.90;;;14.32;100.00;100534.72;5175050;28;20057;-78
2022/10/22 04:41:42;;;;;;;4.25;2.40;;;14.20;99.90;;;14.35;100.00;100533.91;5207377;28;20049;-78
2022/10/22 04:44:14;;;;;;;3.15;1.98;;;14.20;99.90;;;14.35;100.00;100533.91;5191393;28;20056;-78
2022/10/22 04:46:47;;;;;;;6.07;2.80;;;14.30;99.90;;;14.37;100.00;100532.16;5207795;28;20509;-78
2022/10/22 04:49:19;;;;;;;5.30;2.88;;;14.30;99.90;;;14.38;100.00;100534.81;5225582;28;20393;-78
2022/10/22 04:51:53;;;;;;;4.80;2.50;;;14.30;99.90;;;14.40;100.00;100540.94;5206979;28;20144;-79
2022/10/22 04:54:25;;;;;;;5.97;3.13;;;14.30;99.90;;;14.42;100.00;100540.13;5225583;28;20053;-79
2022/10/22 04:56:57;;;;;;;5.43;2.63;;;14.30;99.90;;;14.43;100.00;100532.25;5225686;28;20523;-78
2022/10/22 04:59:30;;;;;;;4.65;2.88;;;14.30;99.90;;;14.43;100.00;100549.75;5191268;28;20420;-78
2022/10/22 05:02:02;;;;;;;4.57;2.60;;;14.30;99.90;;;14.43;100.00;100541.88;5210071;28;20059;-78
2022/10/22 05:04:35;;;;;;;7.38;4.63;;;14.30;99.90;;;14.43;100.00;100548.00;5179145;28;20416;-78
2022/10/22 05:07:08;;;;;;;12.40;6.70;;;14.30;99.90;;;14.45;100.00;100550.63;5211710;28;20064;-79
2022/10/22 05:09:41;;;;;;;10.80;6.45;;;14.30;99.90;;;14.45;100.00;100556.75;5195442;28;20501;-78
2022/10/22 05:12:13;;;;;;;12.80;6.95;;;14.30;99.90;;;14.44;100.00;100554.13;5195460;28;20386;-78
2022/10/22 05:14:46;;;;;;;11.05;6.10;;;14.30;99.90;;;14.45;100.00;100550.63;5195112;28;20049;-78
2022/10/22 05:17:20;;;;;;;15.02;8.25;;;14.30;99.90;;;14.44;100.00;100551.50;5211564;28;20053;-79
2022/10/22 05:19:54;;;;;;;16.02;9.32;;;14.30;99.90;;;14.43;100.00;100548.00;5178694;28;20056;-78
2022/10/22 05:22:27;;;;;;;13.95;6.32;;;14.30;99.90;;;14.43;100.00;100550.63;5211416;28;20056;-83
2022/10/22 05:25:02;;;;;;;11.85;6.22;;;14.40;99.90;;;14.44;100.00;100555.00;5229273;28;20049;-79
2022/10/22 05:27:35;;;;;;;8.55;4.70;;;14.30;99.90;;;14.44;100.00;100556.75;5210853;28;20044;-78
2022/10/22 05:30:08;;;;;;;10.73;5.05;;;14.30;99.90;;;14.44;100.00;100559.38;5194812;28;20041;-78
2022/10/22 05:32:41;;;;;;;10.05;5.43;;;14.40;99.90;;;14.43;100.00;100568.97;5194892;28;20055;-78
2022/10/22 05:35:13;;;;;;;11.65;5.93;;;14.30;99.90;;;14.43;100.00;100560.22;5195250;28;20057;-79
2022/10/22 05:37:47;;;;;;;13.32;7.20;;;14.30;99.90;;;14.43;100.00;100574.22;5210836;28;20472;-78
2022/10/22 05:40:19;;;;;;;18.33;9.23;;;14.30;99.90;;;14.44;100.00;100565.50;5178234;28;20190;-78
2022/10/22 05:42:52;;;;;;;11.73;6.68;;;14.40;99.90;;;14.40;100.00;100575.03;5194586;28;20524;-79
2022/10/22 05:45:24;;;;;;;11.05;5.80;;;14.30;99.90;;;14.36;100.00;100578.50;5194396;28;20045;-79
2022/10/22 05:47:56;;;;;;;10.70;5.15;;;14.30;99.90;;;14.32;100.00;100583.66;5194171;28;20045;-79
2022/10/22 05:50:29;;;;;;;7.95;4.85;;;14.20;99.90;;;14.25;100.00;100590.53;5210170;28;20045;-79
2022/10/22 05:53:03;;;;;;;12.07;5.07;;;14.10;99.90;;;14.19;100.00;100606.16;5227908;28;20048;-79
2022/10/22 05:55:37;;;;;;;8.77;4.90;;;14.10;99.90;;;14.10;100.00;100611.25;5194082;28;20424;-79
2022/10/22 05:58:11;;;;;;;7.03;4.00;;;14.00;99.90;;;14.01;100.00;100613.69;5210532;28;20053;-80
2022/10/22 06:00:43;;;;;;;5.90;3.63;;;13.90;99.90;;;13.93;100.00;100624.03;5209841;28;20673;-79
2022/10/22 06:03:16;;;;;;;6.85;3.75;;;13.80;99.90;;;13.88;100.00;100635.28;5193249;28;20049;-80
2022/10/22 06:05:48;;;;;;;6.10;3.22;;;13.70;99.90;;;13.83;100.00;100633.47;5176693;28;20057;-79
2022/10/22 06:08:23;;;;;;;6.00;3.35;;;13.70;99.90;;;13.80;100.00;100633.41;5227813;28;20051;-79
2022/10/22 06:10:56;;;;;;;5.80;2.88;;;13.70;99.90;;;13.80;100.00;100633.41;5194184;28;20053;-79
2022/10/22 06:13:29;;;;;;;6.15;2.97;;;13.70;99.90;;;13.81;100.00;100637.78;5209173;28;20045;-79
2022/10/22 06:16:01;;;;;;;5.30;2.85;;;13.70;99.90;;;13.81;100.00;100650.00;5194043;28;20404;-80
2022/10/22 06:18:33;;;;;;;5.78;3.10;;;13.70;99.90;;;13.79;100.00;100649.09;5193533;28;20041;-80
2022/10/22 06:21:09;;;;;;;5.10;2.55;;;13.70;99.90;;;13.78;100.00;100650.84;5193261;28;20049;-79
2022/10/22 06:23:44;;;;;;;5.20;3.08;;;13.70;99.90;;;13.78;100.00;100656.09;5209667;28;20727;-79
2022/10/22 06:26:17;;;;;;;5.95;3.38;;;13.70;99.90;;;13.81;100.00;100655.25;5177036;28;20056;-80
2022/10/22 06:28:49;;;;;;;5.68;3.25;;;13.70;99.90;;;13.85;100.00;100657.97;5227675;28;20044;-79
2022/10/22 06:31:22;;;;;;;5.88;3.28;;;13.70;99.90;;;13.91;100.00;100656.31;5193091;28;20044;-80
2022/10/22 06:33:54;;;;;;;9.38;4.75;;;13.70;99.90;;;13.99;100.00;100662.59;5209463;28;20051;-79
2022/10/22 06:36:27;;;;;;;9.07;4.43;;;13.80;99.90;;;14.09;100.00;100672.41;5193299;28;20049;-79
2022/10/22 06:39:02;;;;;;;10.48;4.32;;;13.90;99.90;;;14.18;100.00;100667.31;5192889;28;20496;-79
2022/10/22 06:41:34;;;;;;;7.85;4.30;;;14.00;99.90;;;14.26;100.00;100681.44;5193111;28;20041;-79
2022/10/22 06:44:07;;;;;;;7.90;4.10;;;14.10;99.90;;;14.35;100.00;100680.72;5193057;28;20045;-79
2022/10/22 06:46:39;;;;;;;8.75;4.15;;;14.20;99.90;;;14.45;100.00;100687.00;5192814;28;20053;-79
2022/10/22 06:49:14;;;;;;;6.55;4.07;;;14.30;99.90;;;14.53;100.00;100688.03;5193122;28;20060;-79
2022/10/22 06:51:50;;;;;;;6.50;3.67;;;14.30;99.90;;;14.62;100.00;100690.84;5192529;28;20049;-80
2022/10/22 06:54:26;;;;;;;6.05;3.70;;;14.40;99.90;;;14.68;100.00;100697.94;5209326;28;20425;-79
2022/10/22 06:57:00;;;;;;;5.80;3.38;;;14.50;99.90;;;14.73;100.00;100699.75;5176839;28;20420;-80
2022/10/22 06:59:32;;;;;;;6.60;3.75;;;14.50;99.90;;;14.79;100.00;100712.97;5206189;28;20038;-84
2022/10/22 07:02:05;;;;;;;5.32;2.92;;;14.60;99.90;;;14.84;100.00;100708.69;5129374;28;20041;-84
2022/10/22 07:04:38;;;;;;;5.82;3.08;;;14.70;99.90;;;14.88;100.00;100707.91;5186800;28;20103;-84
2022/10/22 07:07:10;;;;;;;4.68;2.85;;;14.70;99.90;;;14.91;100.00;100710.56;5188515;28;20053;-83
2022/10/22 07:09:48;;;;;;;8.75;3.30;;;14.70;99.90;;;14.93;100.00;100708.84;5156053;28;20049;-84
2022/10/22 07:12:20;;;;;;;4.85;3.13;;;14.70;99.90;;;14.95;100.00;100705.38;5192171;28;20041;-84
2022/10/22 07:14:53;;;;;;;6.68;3.30;;;14.80;99.90;;;15.00;100.00;100708.94;5201711;28;20068;-84
2022/10/22 07:17:25;;;;;;;4.60;2.83;;;14.80;99.90;;;15.03;100.00;100722.09;5220313;28;20045;-84
2022/10/22 07:19:57;;;;;;;4.95;3.10;;;14.90;99.90;;;15.08;100.00;100716.06;5192007;28;20049;-84
2022/10/22 07:22:30;;;;;;;6.50;3.22;;;14.90;99.90;;;15.14;100.00;100723.16;5209088;28;20041;-84
2022/10/22 07:25:04;;;;;;;6.13;3.55;;;14.90;99.90;;;15.16;100.00;100726.69;5190887;28;20036;-84
2022/10/22 07:27:37;;;;;;;5.65;3.60;;;15.00;99.90;;;15.19;100.00;100734.59;5226343;28;20420;-83
2022/10/22 07:30:10;;;;;;;7.10;3.30;;;15.00;99.90;;;15.23;100.00;100738.16;5208338;28;20048;-83
2022/10/22 07:32:42;;;;;;;6.20;3.30;;;15.10;99.90;;;15.26;100.00;100732.94;5208466;28;20531;-83
2022/10/22 07:35:15;;;;;;;5.25;3.03;;;15.10;99.90;;;15.31;100.00;100747.91;5208657;28;20049;-83
2022/10/22 07:37:47;;;;;;;5.70;3.38;;;15.10;99.90;;;15.34;100.00;100749.72;5192233;28;20066;-83
2022/10/22 07:40:21;;;;;;;4.68;3.08;;;15.20;99.90;;;15.34;100.00;100750.59;5208368;28;20125;-83
2022/10/22 07:42:54;;;;;;;4.70;3.00;;;15.10;99.90;;;15.37;100.00;100758.50;5226227;28;20049;-82
2022/10/22 07:45:27;;;;;;;4.53;2.70;;;15.20;99.90;;;15.42;100.00;100759.47;5175715;28;20064;-84
2022/10/22 07:47:59;;;;;;;4.43;2.38;;;15.20;99.90;;;15.55;100.00;100764.91;5208202;28;20504;-83
2022/10/22 07:50:32;;;;;;;6.13;3.33;;;15.30;99.90;;;16.24;100.00;100761.44;5225597;28;20075;-83
2022/10/22 07:53:07;;;;;;;5.32;2.63;;;15.60;99.90;;;17.18;100.00;100773.75;5207902;28;20045;-83
2022/10/22 07:55:41;;;;;;;4.90;2.63;;;16.30;99.90;;;18.08;100.00;100775.19;5208010;28;20603;-83
2022/10/22 07:58:13;;;;;;;4.05;2.53;;;17.00;99.90;;;18.69;100.00;100782.41;5174893;28;20056;-83
2022/10/22 08:00:49;;;;;;;4.63;2.60;;;17.50;99.90;;;18.87;100.00;100789.47;5225379;28;20041;-83
2022/10/22 08:03:21;;;;;;;;;;;17.90;99.90;;;18.72;100.00;100798.25;5226030;28;20386;-83
2022/10/22 08:05:59;;;;;;;4.40;2.33;;;17.90;99.90;;;18.68;100.00;100804.41;5188922;28;19932;-82
2022/10/22 08:08:32;;;;;;;4.65;2.42;;;17.90;99.90;;;18.61;100.00;100799.97;5192988;28;20056;-82
2022/10/22 08:11:07;;;;;;;4.55;2.20;;;17.90;99.90;;;19.16;100.00;100807.97;5211603;28;20145;-79
2022/10/22 08:13:39;;;;;;;5.13;2.17;;;18.30;99.90;;;19.63;100.00;100807.97;5170466;28;20052;-79
2022/10/22 08:16:12;;;;;;;4.13;2.13;;;18.60;99.90;;;19.79;100.00;100812.31;5207223;28;20454;-79
2022/10/22 08:18:45;;;;;;;5.95;2.35;;;18.90;99.90;;;19.74;100.00;100814.09;5191322;28;20060;-81
2022/10/22 08:21:18;;;;;;;4.43;1.95;;;18.90;99.90;;;19.59;100.00;100823.81;5207246;28;20040;-81
2022/10/22 08:23:52;;;;;;;3.22;1.90;;;18.90;99.90;;;19.49;100.00;100823.78;5207125;28;20056;-82
2022/10/22 08:26:25;;;;;;;4.07;2.20;;;18.90;99.90;;;19.29;100.00;100824.69;5190845;28;20064;-81
2022/10/22 08:28:58;;;;;;;6.15;2.20;;;18.70;99.90;;;19.03;100.00;100828.22;5225065;28;20033;-81
2022/10/22 08:31:31;;;;;;;5.68;2.10;;;18.60;99.90;;;18.74;100.00;100832.59;5190950;28;20052;-81
2022/10/22 08:34:04;;;;;;;4.18;1.60;;;18.30;99.90;;;18.48;100.00;100833.38;5190953;28;20045;-81
2022/10/22 08:36:42;;;;;;;4.03;1.85;;;18.20;99.90;;;18.24;100.00;100836.78;5207359;28;20543;-81
2022/10/22 08:39:14;;;;;;;5.18;1.67;;;17.90;99.90;;;18.05;100.00;100838.44;5191669;28;20052;-81
2022/10/22 08:41:59;;;;;;;4.47;1.83;;;17.80;99.90;;;17.89;100.00;100841.91;5206834;28;20090;-81
2022/10/22 08:45:00;;;;;;;2.65;1.50;;;17.60;99.90;;;17.73;100.00;100842.66;5186831;28;20064;-81
2022/10/22 08:47:54;;;;;;;4.10;1.50;;;17.50;99.90;;;17.59;100.00;100840.78;5203669;28;20049;-80
2022/10/22 08:50:34;;;;;;;2.17;1.55;;;17.40;99.90;;;17.48;100.00;100850.41;5186585;28;20045;-81
2022/10/22 08:53:15;;;;;;;2.92;1.70;;;17.20;99.90;;;17.37;100.00;100852.06;5199001;28;20424;-82
2022/10/22 08:55:54;;;;;;;4.68;1.90;;;17.10;99.90;;;17.30;100.00;100850.25;5207020;28;20045;-82
2022/10/22 08:58:36;;;;;;;4.70;1.50;;;17.00;99.90;;;17.22;100.00;100855.44;5191131;28;20074;-82
2022/10/22 09:01:15;;;;;;;2.45;1.60;;;17.00;99.90;;;17.18;100.00;100856.28;5207166;28;20036;-82
2022/10/22 09:03:53;;;;;;;6.18;1.77;;;16.90;99.90;;;17.16;100.00;100854.50;5206961;28;20045;-81
2022/10/22 09:06:30;;;;;;;4.30;1.80;;;16.90;99.90;;;17.13;100.00;100862.38;5215960;28;20129;-82
2022/10/22 09:09:12;;;;;;;3.92;1.80;;;16.90;99.90;;;17.08;100.00;100860.59;5211100;28;20526;-81
2022/10/22 09:11:47;;;;;;;5.03;1.90;;;16.90;99.90;;;17.10;100.00;100868.50;5227452;28;20125;-82
2022/10/22 09:14:24;;;;;;;4.78;1.73;;;16.80;99.90;;;17.05;100.00;100860.56;5211142;28;20061;-82
2022/10/22 09:17:14;;;;;;;5.00;1.70;;;16.80;99.90;;;17.04;100.00;100860.53;5211262;28;20512;-83
2022/10/22 09:19:59;;;;;;;8.23;1.58;;;16.80;99.90;;;17.04;100.00;100876.34;5211094;28;20055;-82
2022/10/22 09:22:41;;;;;;;5.07;1.73;;;16.80;99.90;;;17.01;100.00;100866.66;5211612;28;20044;-82
2022/10/22 09:25:28;;;;;;;6.40;1.95;;;16.80;99.90;;;17.01;100.00;100873.66;5226976;28;20051;-82
2022/10/22 09:28:01;;;;;;;4.28;1.85;;;16.80;99.90;;;17.01;100.00;100879.81;5245646;28;20052;-82
2022/10/22 09:30:38;;;;;;;3.20;1.58;;;16.70;99.90;;;17.04;100.00;100882.50;5245344;28;20044;-82
2022/10/22 09:33:16;;;;;;;6.72;1.40;;;16.70;99.90;;;17.08;100.00;100876.41;5244311;22;20049;-55
2022/10/22 09:35:53;;;;;;;5.40;1.40;;;16.80;99.90;;;17.12;100.00;100877.28;5223513;28;20055;-56
2022/10/22 09:38:29;;;;;;;4.93;1.88;;;16.80;99.90;;;17.31;100.00;100873.97;5223821;28;20413;-55
2022/10/22 09:41:02;;;;;;;6.47;1.70;;;17.00;99.90;;;17.47;100.00;100880.22;5223806;28;20045;-55
2022/10/22 09:43:35;;;;;;;6.60;1.58;;;17.20;99.90;;;17.57;100.00;100887.34;5223909;28;20049;-58
2022/10/22 09:46:17;;;;;;;6.38;1.80;;;17.30;99.90;;;17.66;100.00;100885.63;5205976;28;20047;-59
2022/10/22 09:48:52;;;;;;;4.57;1.40;;;17.40;99.90;;;17.68;100.00;100886.56;5211579;28;20045;-57
2022/10/22 09:51:37;;;;;;;3.92;1.40;;;17.50;99.90;;;17.64;100.00;100886.53;5227727;28;20405;-58
2022/10/22 09:54:17;;;;;;;3.28;1.35;;;17.40;99.90;;;17.64;100.00;100886.53;5228117;28;20056;-60
2022/10/22 09:56:57;;;;;;;3.13;1.33;;;17.40;99.90;;;17.71;100.00;100889.19;5228177;28;20056;-60
2022/10/22 09:59:31;;;;;;;3.85;1.30;;;17.50;99.90;;;17.75;100.00;100891.03;5228103;28;20048;-61
2022/10/22 10:02:12;;;;;;;2.03;1.20;;;17.50;99.90;;;17.80;100.00;100895.47;5227522;28;20045;-61
2022/10/22 10:04:47;;;;;;;;;;;17.50;99.90;;;17.82;100.00;100898.09;5228464;28;20053;-61
2022/10/22 10:07:23;;;;;;;4.45;1.10;;;17.50;99.90;;;17.90;100.00;100902.56;5228070;28;19924;-60
2022/10/22 10:09:55;;;;;;;5.40;1.10;;;17.60;99.90;;;17.97;100.00;100903.47;5239652;28;20044;-61
2022/10/22 10:12:39;;;;;;;3.10;1.00;;;17.70;99.90;;;18.03;100.00;100903.50;5248301;28;20055;-61
2022/10/22 10:15:20;;;;;;;2.90;0.85;;;17.70;99.90;;;18.07;100.00;100902.66;5248691;28;20055;-61
2022/10/22 10:18:06;;;;;;;2.45;0.88;;;17.70;99.90;;;18.13;100.00;100907.97;5236193;28;20045;-60
2022/10/22 10:20:48;;;;;;;4.80;1.00;;;17.80;99.90;;;18.20;100.00;100905.38;5225111;28;20126;-61
2022/10/22 10:23:29;;;;;;;3.00;0.90;;;17.90;99.90;;;18.26;100.00;100908.94;5225332;28;20075;-61
2022/10/22 10:26:09;;;;;;;2.25;0.90;;;17.90;99.90;;;18.31;100.00;100909.81;5227536;28;20448;-61
2022/10/22 10:29:02;;;;;;;3.60;0.82;;;18.00;99.90;;;18.34;100.00;100914.25;5227657;28;20049;-59
2022/10/22 10:31:47;;;;;;;2.55;0.90;;;18.00;99.90;;;18.34;100.00;100909.84;5226851;28;20076;-58
2022/10/22 10:34:31;;;;;;;2.75;0.90;;;18.00;99.90;;;18.36;100.00;100923.03;5227486;28;20041;-59
2022/10/22 10:37:18;;;;;;;3.75;1.00;;;18.00;99.90;;;18.42;100.00;100920.44;5226756;28;20060;-59
2022/10/22 10:40:19;;;;;;;4.57;1.00;;;18.10;99.90;;;18.55;100.00;100934.56;5226762;28;20045;-59